createdAt,value
2019-04-28T00:02:07.578Z,71.37
2019-04-28T00:04:37.581Z,71.45
2019-04-28T00:07:08.026Z,71.36
2019-04-28T00:09:38.346Z,71.33
2019-04-28T00:12:08.686Z,71.57
2019-04-28T00:14:38.692Z,71.73
2019-04-28T00:17:08.641Z,71.52
2019-04-28T00:19:38.643Z,71.40
2019-04-28T00:22:11.023Z,71.38
2019-04-28T00:24:42.802Z,71.62
2019-04-28T00:27:12.945Z,71.77
2019-04-28T00:29:46.037Z,71.67
2019-04-28T00:32:14.770Z,71.82
2019-04-28T00:34:44.871Z,71.92
2019-04-28T00:37:16.487Z,71.93
2019-04-28T00:39:46.589Z,71.90
2019-04-28T00:42:16.522Z,72.19
2019-04-28T00:44:46.615Z,71.94
2019-04-28T00:47:16.554Z,71.96
2019-04-28T00:49:46.557Z,72.11
2019-04-28T00:52:18.195Z,72.25
2019-04-28T00:54:48.889Z,72.13
2019-04-28T00:57:21.090Z,72.24
2019-04-28T00:59:57.512Z,72.02
2019-04-28T01:02:25.055Z,71.74
2019-04-28T01:04:55.373Z,71.68
2019-04-28T01:07:25.502Z,71.93
2019-04-28T01:09:55.597Z,72.03
2019-04-28T01:12:25.737Z,71.92
2019-04-28T01:14:57.983Z,71.76
2019-04-28T01:17:45.783Z,72.02
2019-04-28T01:20:19.564Z,71.96
2019-04-28T01:22:49.739Z,71.88
2019-04-28T01:25:20.393Z,71.73
2019-04-28T01:27:55.192Z,71.82
2019-04-28T01:30:29.917Z,71.90
2019-04-28T01:33:06.136Z,72.10
2019-04-28T01:35:36.238Z,72.00
2019-04-28T01:38:07.482Z,72.03
2019-04-28T01:40:37.476Z,72.01
2019-04-28T01:43:07.447Z,71.99
2019-04-28T01:45:37.459Z,72.13
2019-04-28T01:48:07.428Z,72.06
2019-04-28T01:50:37.431Z,71.72
2019-04-28T01:53:09.742Z,71.56
2019-04-28T01:55:41.163Z,71.78
2019-04-28T01:58:11.341Z,71.83
2019-04-28T02:00:41.435Z,71.93
2019-04-28T02:03:11.416Z,72.01
2019-04-28T02:05:41.906Z,71.95
2019-04-28T02:08:11.878Z,71.94
2019-04-28T02:10:41.892Z,72.12
2019-04-28T02:13:11.873Z,72.22
2019-04-28T02:15:41.864Z,72.34
2019-04-28T02:18:11.844Z,72.23
2019-04-28T02:20:43.433Z,72.07
2019-04-28T02:23:17.707Z,72.19
2019-04-28T02:25:49.687Z,72.41
2019-04-28T02:28:19.810Z,72.24
2019-04-28T02:30:53.624Z,72.02
2019-04-28T02:33:21.713Z,71.97
2019-04-28T02:35:51.712Z,71.99
2019-04-28T02:38:21.706Z,72.33
2019-04-28T02:40:51.721Z,72.53
2019-04-28T02:43:21.787Z,72.38
2019-04-28T02:45:53.423Z,72.29
2019-04-28T02:48:25.310Z,72.16
2019-04-28T02:50:56.868Z,72.25
2019-04-28T02:53:33.098Z,71.99
2019-04-28T02:56:00.921Z,72.07
2019-04-28T02:58:31.410Z,72.01
2019-04-28T03:01:11.089Z,71.90
2019-04-28T03:03:33.262Z,72.21
2019-04-28T03:06:03.260Z,71.88
2019-04-28T03:08:33.332Z,72.00
2019-04-28T03:11:03.875Z,72.00
2019-04-28T03:13:33.850Z,71.83
2019-04-28T03:16:03.974Z,71.76
2019-04-28T03:18:33.937Z,71.78
2019-04-28T03:21:04.654Z,72.23
2019-04-28T03:23:34.785Z,71.99
2019-04-28T03:26:06.344Z,71.95
2019-04-28T03:28:44.157Z,71.99
2019-04-28T03:31:48.393Z,71.88
2019-04-28T03:33:55.064Z,71.77
2019-04-28T03:36:23.415Z,71.88
2019-04-28T03:38:54.056Z,71.92
2019-04-28T03:41:24.177Z,71.74
2019-04-28T03:43:54.251Z,71.86
2019-04-28T03:46:30.504Z,71.91
2019-04-28T03:49:00.930Z,71.68
2019-04-28T03:51:31.202Z,71.49
2019-04-28T03:54:02.930Z,71.39
2019-04-28T03:56:32.918Z,71.69
2019-04-28T03:59:02.984Z,71.54
2019-04-28T04:01:32.976Z,71.74
2019-04-28T04:04:03.523Z,71.83
2019-04-28T04:06:33.811Z,71.86
2019-04-28T04:09:04.581Z,71.88
2019-04-28T04:11:36.152Z,71.83
2019-04-28T04:14:07.688Z,71.83
2019-04-28T04:16:40.535Z,71.74
2019-04-28T04:19:15.226Z,72.12
2019-04-28T04:21:45.325Z,71.78
2019-04-28T04:24:15.286Z,71.97
2019-04-28T04:26:45.285Z,71.97
2019-04-28T04:29:15.254Z,71.93
2019-04-28T04:31:45.357Z,71.88
2019-04-28T04:34:15.325Z,72.09
2019-04-28T04:36:45.317Z,72.08
2019-04-28T04:39:15.282Z,71.70
2019-04-28T04:41:45.275Z,71.61
2019-04-28T04:44:15.241Z,71.41
2019-04-28T04:46:45.238Z,71.42
2019-04-28T04:49:15.211Z,71.25
2019-04-28T04:51:46.705Z,71.13
2019-04-28T04:54:20.285Z,71.05
2019-04-28T04:56:50.208Z,70.80
2019-04-28T04:59:20.388Z,70.42
2019-04-28T05:02:02.068Z,70.28
2019-04-28T05:04:36.912Z,70.12
2019-04-28T05:07:06.991Z,70.15
2019-04-28T05:09:36.920Z,70.03
2019-04-28T05:12:06.912Z,70.08
2019-04-28T05:14:36.840Z,70.35
2019-04-28T05:17:06.833Z,69.89
2019-04-28T05:19:36.763Z,69.79
2019-04-28T05:22:07.366Z,69.85
2019-04-28T05:24:40.313Z,69.73
2019-04-28T05:27:10.855Z,69.29
2019-04-28T05:29:40.792Z,69.26
2019-04-28T05:32:10.981Z,68.72
2019-04-28T05:34:46.745Z,68.67
2019-04-28T05:37:12.596Z,68.69
2019-04-28T05:39:42.625Z,68.58
2019-04-28T05:42:12.725Z,68.78
2019-04-28T05:44:42.762Z,69.08
2019-04-28T05:47:12.747Z,68.57
2019-04-28T05:49:47.089Z,68.16
2019-04-28T05:52:35.014Z,68.71
2019-04-28T05:55:11.382Z,68.42
2019-04-28T05:57:53.119Z,68.18
2019-04-28T06:00:37.119Z,67.86
2019-04-28T06:03:14.750Z,68.01
2019-04-28T06:05:44.687Z,68.52
2019-04-28T06:08:16.253Z,68.77
2019-04-28T06:10:46.194Z,68.99
2019-04-28T06:13:16.513Z,69.05
2019-04-28T06:15:46.452Z,68.11
2019-04-28T06:18:16.453Z,68.13
2019-04-28T06:20:46.389Z,67.58
2019-04-28T06:23:16.371Z,67.44
2019-04-28T06:25:46.303Z,67.23
2019-04-28T06:28:16.379Z,66.60
2019-04-28T06:30:49.178Z,66.60
2019-04-28T06:33:19.370Z,66.50
2019-04-28T06:35:49.402Z,66.21
2019-04-28T06:38:19.492Z,65.93
2019-04-28T06:40:49.428Z,65.72
2019-04-28T06:43:19.523Z,65.68
2019-04-28T06:45:49.853Z,65.79
2019-04-28T06:48:19.930Z,65.39
2019-04-28T06:50:49.856Z,65.24
2019-04-28T06:53:19.856Z,65.48
2019-04-28T06:55:49.876Z,65.22
2019-04-28T06:58:19.964Z,65.13
2019-04-28T07:00:49.991Z,65.09
2019-04-28T07:03:23.212Z,65.28
2019-04-28T07:05:51.610Z,64.81
2019-04-28T07:08:21.588Z,65.26
2019-04-28T07:10:51.519Z,65.40
2019-04-28T07:13:21.508Z,65.54
2019-04-28T07:15:51.591Z,65.28
2019-04-28T07:18:21.575Z,65.29
2019-04-28T07:20:53.113Z,65.16
2019-04-28T07:23:23.116Z,65.08
2019-04-28T07:25:53.195Z,65.46
2019-04-28T07:28:23.241Z,64.34
2019-04-28T07:30:53.285Z,63.77
2019-04-28T07:33:35.320Z,63.64
2019-04-28T07:35:55.150Z,63.34
2019-04-28T07:38:25.375Z,63.49
2019-04-28T07:40:55.808Z,63.06
2019-04-28T07:43:26.586Z,62.68
2019-04-28T07:45:58.017Z,63.41
2019-04-28T07:48:29.328Z,63.55
2019-04-28T07:51:00.352Z,63.44
2019-04-28T07:53:32.824Z,63.30
2019-04-28T07:56:04.649Z,63.70
2019-04-28T07:58:36.436Z,63.70
2019-04-28T08:01:09.160Z,63.36
2019-04-28T08:03:49.201Z,63.41
2019-04-28T08:06:12.346Z,63.48
2019-04-28T08:08:43.887Z,63.65
2019-04-28T08:11:15.129Z,63.70
2019-04-28T08:13:46.262Z,63.47
2019-04-28T08:16:17.271Z,63.33
2019-04-28T08:18:48.254Z,63.12
2019-04-28T08:21:19.616Z,63.19
2019-04-28T08:23:51.413Z,63.69
2019-04-28T08:26:23.005Z,63.50
2019-04-28T08:28:54.090Z,62.96
2019-04-28T08:31:28.205Z,62.22
2019-04-28T08:34:03.927Z,62.05
2019-04-28T08:36:34.912Z,61.08
2019-04-28T08:39:10.644Z,61.92
2019-04-28T08:41:41.699Z,61.92
2019-04-28T08:44:13.353Z,61.73
2019-04-28T08:46:45.301Z,61.46
2019-04-28T08:49:16.355Z,62.16
2019-04-28T08:51:47.825Z,62.67
2019-04-28T08:54:18.517Z,62.51
2019-04-28T08:56:49.287Z,63.08
2019-04-28T08:59:20.873Z,63.23
2019-04-28T09:01:51.828Z,63.59
2019-04-28T09:04:22.334Z,63.09
2019-04-28T09:06:53.417Z,62.30
2019-04-28T09:09:24.470Z,61.36
2019-04-28T09:11:55.874Z,61.69
2019-04-28T09:14:26.910Z,61.68
2019-04-28T09:16:58.635Z,60.94
2019-04-28T09:19:29.574Z,60.58
2019-04-28T09:22:01.503Z,61.16
2019-04-28T09:24:32.313Z,60.95
2019-04-28T09:27:03.113Z,61.43
2019-04-28T09:29:33.825Z,60.51
2019-04-28T09:32:05.230Z,61.05
2019-04-28T09:34:36.920Z,60.45
2019-04-28T09:37:07.097Z,59.71
2019-04-28T09:39:41.528Z,59.90
2019-04-28T09:42:31.289Z,59.08
2019-04-28T09:45:02.956Z,58.93
2019-04-28T09:47:33.015Z,59.36
2019-04-28T09:50:03.005Z,58.08
2019-04-28T09:52:33.104Z,58.47
2019-04-28T09:55:03.089Z,58.39
2019-04-28T09:57:33.062Z,57.75
2019-04-28T10:00:03.052Z,58.43
2019-04-28T10:02:33.025Z,57.43
2019-04-28T10:05:03.099Z,57.09
2019-04-28T10:07:33.078Z,57.82
2019-04-28T10:10:03.423Z,57.20
2019-04-28T10:12:33.501Z,56.63
2019-04-28T10:15:04.043Z,57.06
2019-04-28T10:17:34.007Z,56.44
2019-04-28T10:20:04.852Z,57.07
2019-04-28T10:22:34.818Z,56.92
2019-04-28T10:25:08.128Z,57.23
2019-04-28T10:27:38.272Z,57.32
2019-04-28T10:30:10.204Z,56.83
2019-04-28T10:32:40.288Z,56.38
2019-04-28T10:35:10.457Z,57.37
2019-04-28T10:37:40.533Z,57.03
2019-04-28T10:40:15.467Z,57.13
2019-04-28T10:42:45.547Z,56.45
2019-04-28T10:45:17.250Z,56.83
2019-04-28T10:47:47.290Z,56.87
2019-04-28T10:50:17.508Z,56.30
2019-04-28T10:52:47.577Z,56.21
2019-04-28T10:55:17.644Z,56.10
2019-04-28T10:57:47.712Z,55.90
2019-04-28T11:00:19.333Z,55.45
2019-04-28T11:02:49.316Z,54.49
2019-04-28T11:05:24.200Z,53.73
2019-04-28T11:07:54.873Z,54.16
2019-04-28T11:10:24.915Z,53.35
2019-04-28T11:12:54.964Z,53.32
2019-04-28T11:15:35.533Z,53.35
2019-04-28T11:18:07.978Z,53.46
2019-04-28T11:20:38.210Z,53.53
2019-04-28T11:23:08.396Z,53.56
2019-04-28T11:25:38.902Z,53.69
2019-04-28T11:28:09.994Z,54.23
2019-04-28T11:30:41.394Z,54.68
2019-04-28T11:33:13.719Z,54.78
2019-04-28T11:35:45.980Z,54.18
2019-04-28T11:38:16.703Z,53.95
2019-04-28T11:40:47.200Z,54.08
2019-04-28T11:43:17.958Z,54.48
2019-04-28T11:45:48.764Z,54.68
2019-04-28T11:48:19.941Z,54.19
2019-04-28T11:50:51.119Z,54.48
2019-04-28T11:53:21.909Z,53.93
2019-04-28T11:55:51.995Z,53.88
2019-04-28T11:58:22.703Z,53.77
2019-04-28T12:00:53.429Z,53.22
2019-04-28T12:03:23.988Z,53.32
2019-04-28T12:05:54.827Z,53.77
2019-04-28T12:08:25.263Z,54.17
2019-04-28T12:11:13.600Z,53.69
2019-04-28T12:14:01.664Z,53.15
2019-04-28T12:16:50.449Z,53.59
2019-04-28T12:19:38.105Z,53.94
2019-04-28T12:22:26.450Z,54.84
2019-04-28T12:24:59.033Z,54.46
2019-04-28T12:27:30.446Z,55.02
2019-04-28T12:30:01.145Z,55.25
2019-04-28T12:32:32.198Z,54.89
2019-04-28T12:35:03.179Z,55.10
2019-04-28T12:37:34.252Z,55.21
2019-04-28T12:40:07.624Z,54.94
2019-04-28T12:42:39.807Z,55.21
2019-04-28T12:45:11.049Z,55.16
2019-04-28T12:47:44.693Z,55.31
2019-04-28T12:50:27.395Z,55.19
2019-04-28T12:52:59.753Z,55.90
2019-04-28T12:55:31.472Z,55.40
2019-04-28T12:58:03.545Z,54.71
2019-04-28T13:00:36.689Z,55.09
2019-04-28T13:03:16.119Z,54.70
2019-04-28T13:06:01.462Z,55.21
2019-04-28T13:08:27.629Z,55.30
2019-04-28T13:10:58.864Z,55.48
2019-04-28T13:13:29.085Z,55.36
2019-04-28T13:15:59.616Z,55.06
2019-04-28T13:18:29.619Z,55.06
2019-04-28T13:20:59.887Z,55.43
2019-04-28T13:23:33.514Z,54.73
2019-04-28T13:26:03.265Z,54.49
2019-04-28T13:28:33.364Z,55.24
2019-04-28T13:31:07.435Z,54.94
2019-04-28T13:33:53.780Z,54.89
2019-04-28T13:36:15.118Z,55.14
2019-04-28T13:38:42.479Z,55.00
2019-04-28T13:41:12.638Z,54.91
2019-04-28T13:43:42.700Z,54.39
2019-04-28T13:46:14.100Z,55.31
2019-04-28T13:48:44.561Z,54.94
2019-04-28T13:51:14.973Z,56.01
2019-04-28T13:53:46.903Z,56.88
2019-04-28T13:56:18.191Z,57.03
2019-04-28T13:58:50.814Z,57.00
2019-04-28T14:01:22.659Z,57.14
2019-04-28T14:04:15.439Z,57.48
2019-04-28T14:06:47.801Z,57.38
2019-04-28T14:09:19.017Z,57.76
2019-04-28T14:11:56.235Z,57.22
2019-04-28T14:14:26.829Z,57.58
2019-04-28T14:16:59.125Z,57.74
2019-04-28T14:19:29.533Z,57.72
2019-04-28T14:22:03.982Z,57.96
2019-04-28T14:24:34.794Z,57.16
2019-04-28T14:27:06.603Z,56.90
2019-04-28T14:29:37.651Z,57.04
2019-04-28T14:32:09.102Z,57.03
2019-04-28T14:34:39.834Z,57.17
2019-04-28T14:37:10.851Z,56.88
2019-04-28T14:39:41.072Z,56.95
2019-04-28T14:42:11.588Z,57.24
2019-04-28T14:44:44.063Z,57.10
2019-04-28T14:47:16.510Z,57.55
2019-04-28T14:49:49.209Z,57.84
2019-04-28T14:52:21.135Z,58.77
2019-04-28T14:54:53.073Z,58.76
2019-04-28T14:57:24.270Z,60.81
2019-04-28T14:59:54.880Z,61.43
2019-04-28T15:02:30.038Z,61.27
2019-04-28T15:05:12.127Z,63.77
2019-04-28T15:08:01.092Z,64.53
2019-04-28T15:10:36.463Z,63.56
2019-04-28T15:13:07.881Z,65.20
2019-04-28T15:15:39.044Z,65.28
2019-04-28T15:18:09.786Z,66.05
2019-04-28T15:20:40.494Z,67.43
2019-04-28T15:23:13.491Z,67.29
2019-04-28T15:25:45.078Z,67.19
2019-04-28T15:28:16.215Z,68.88
2019-04-28T15:30:47.833Z,68.66
2019-04-28T15:33:19.564Z,69.44
2019-04-28T15:35:50.123Z,68.69
2019-04-28T15:38:21.321Z,69.29
2019-04-28T15:40:54.842Z,69.84
2019-04-28T15:43:26.089Z,71.19
2019-04-28T15:45:57.356Z,70.46
2019-04-28T15:48:28.291Z,71.15
2019-04-28T15:51:00.528Z,70.77
2019-04-28T15:53:35.049Z,71.67
2019-04-28T15:56:13.327Z,72.03
2019-04-28T15:58:44.483Z,70.52
2019-04-28T16:01:16.758Z,71.43
2019-04-28T16:03:47.414Z,72.63
2019-04-28T16:06:21.978Z,73.42
2019-04-28T16:08:57.407Z,72.81
2019-04-28T16:11:36.116Z,73.88
2019-04-28T16:14:04.827Z,74.24
2019-04-28T16:16:37.624Z,74.59
2019-04-28T16:19:08.986Z,74.61
2019-04-28T16:21:44.502Z,74.60
2019-04-28T16:24:15.710Z,75.44
2019-04-28T16:26:45.871Z,75.61
2019-04-28T16:29:15.976Z,75.25
2019-04-28T16:31:46.081Z,75.26
2019-04-28T16:34:16.177Z,75.21
2019-04-28T16:36:46.572Z,75.50
2019-04-28T16:39:17.323Z,75.57
2019-04-28T16:41:54.357Z,76.62
2019-04-28T16:44:25.107Z,76.80
2019-04-28T16:46:55.240Z,76.82
2019-04-28T16:49:27.243Z,77.54
2019-04-28T16:52:02.608Z,77.18
2019-04-28T16:54:34.097Z,77.53
2019-04-28T16:59:44.364Z,77.76
2019-04-28T17:02:22.535Z,77.28
2019-04-28T17:05:05.929Z,77.85
2019-04-28T17:07:53.191Z,77.98
2019-04-28T17:10:18.979Z,78.17
2019-04-28T17:12:49.151Z,78.09
2019-04-28T17:15:19.605Z,78.96
2019-04-28T17:17:55.779Z,78.16
2019-04-28T17:20:26.044Z,79.00
2019-04-28T17:22:56.127Z,78.82
2019-04-28T17:25:26.262Z,79.28
2019-04-28T17:28:04.190Z,78.48
2019-04-28T17:31:03.666Z,79.08
2019-04-28T17:33:22.437Z,79.25
2019-04-28T17:35:57.777Z,79.43
2019-04-28T17:38:28.293Z,80.14
2019-04-28T17:40:58.887Z,79.97
2019-04-28T17:43:39.530Z,80.93
2019-04-28T17:46:08.086Z,80.77
2019-04-28T17:48:40.358Z,80.82
2019-04-28T17:51:13.458Z,80.61
2019-04-28T17:53:43.945Z,81.21
2019-04-28T17:56:15.747Z,80.67
2019-04-28T17:58:46.627Z,80.48
2019-04-28T18:01:21.970Z,80.49
2019-04-28T18:04:10.089Z,80.73
2019-04-28T18:06:44.976Z,80.91
2019-04-28T18:09:15.839Z,81.35
2019-04-28T18:11:47.048Z,81.22
2019-04-28T18:14:36.533Z,80.67
2019-04-28T18:17:38.132Z,81.32
2019-04-28T18:20:11.845Z,81.18
2019-04-28T18:22:42.205Z,81.63
2019-04-28T18:25:12.984Z,81.41
2019-04-28T18:27:43.820Z,81.05
2019-04-28T18:30:15.867Z,81.35
2019-04-28T18:33:04.635Z,81.72
2019-04-28T18:35:36.803Z,81.68
2019-04-28T18:38:18.495Z,81.63
2019-04-28T18:40:53.336Z,82.04
2019-04-28T18:43:25.587Z,81.27
2019-04-28T18:45:56.737Z,81.47
2019-04-28T18:48:27.156Z,81.89
2019-04-28T18:50:58.438Z,81.80
2019-04-28T18:56:17.404Z,81.14
2019-04-28T18:58:49.838Z,81.54
2019-04-28T19:01:25.121Z,81.18
2019-04-28T19:03:59.812Z,81.11
2019-04-28T19:06:43.197Z,81.02
2019-04-28T19:09:34.263Z,81.99
2019-04-28T19:12:06.393Z,81.33
2019-04-28T19:14:41.498Z,81.86
2019-04-28T19:17:13.468Z,81.84
2019-04-28T19:19:47.237Z,81.31
2019-04-28T19:22:20.200Z,82.36
2019-04-28T19:24:51.731Z,82.00
2019-04-28T19:27:30.179Z,82.50
2019-04-28T19:30:03.929Z,82.20
2019-04-28T19:32:36.413Z,82.51
2019-04-28T19:35:17.220Z,82.69
2019-04-28T19:37:44.421Z,82.34
2019-04-28T19:40:17.592Z,82.58
2019-04-28T19:42:51.261Z,82.86
2019-04-28T19:45:23.060Z,83.12
2019-04-28T19:47:53.500Z,82.81
2019-04-28T19:50:24.068Z,82.38
2019-04-28T19:52:56.449Z,82.77
2019-04-28T19:55:32.340Z,82.14
2019-04-28T19:58:07.421Z,82.06
2019-04-28T20:00:42.844Z,82.36
2019-04-28T20:03:14.656Z,82.85
2019-04-28T20:05:47.064Z,82.79
2019-04-28T20:08:18.121Z,82.73
2019-04-28T20:10:49.357Z,82.83
2019-04-28T20:13:21.754Z,83.30
2019-04-28T20:15:54.358Z,83.37
2019-04-28T20:18:29.500Z,83.03
2019-04-28T20:21:02.033Z,83.13
2019-04-28T20:23:34.790Z,82.67
2019-04-28T20:26:07.348Z,83.05
2019-04-28T20:28:39.187Z,83.31
2019-04-28T20:31:13.886Z,82.90
2019-04-28T20:33:47.774Z,83.31
2019-04-28T20:36:33.138Z,82.97
2019-04-28T20:39:07.591Z,83.62
2019-04-28T20:41:38.833Z,83.17
2019-04-28T20:44:10.162Z,83.36
2019-04-28T20:46:41.515Z,83.34
2019-04-28T20:49:14.665Z,83.23
2019-04-28T20:51:51.608Z,83.30
2019-04-28T20:54:24.815Z,83.24
2019-04-28T20:56:56.952Z,83.46
2019-04-28T20:59:30.126Z,84.26
2019-04-28T21:02:00.521Z,83.84
2019-04-28T21:04:31.042Z,83.25
2019-04-28T21:07:15.625Z,83.66
2019-04-28T21:09:48.512Z,83.92
2019-04-28T21:12:18.674Z,84.31
2019-04-28T21:14:48.727Z,84.35
2019-04-28T21:17:18.633Z,84.61
2019-04-28T21:19:48.601Z,84.29
2019-04-28T21:22:18.603Z,84.33
2019-04-28T21:24:48.563Z,84.52
2019-04-28T21:27:18.497Z,84.36
2019-04-28T21:29:48.469Z,84.80
2019-04-28T21:32:18.511Z,84.43
2019-04-28T21:34:48.479Z,83.85
2019-04-28T21:37:18.688Z,84.59
2019-04-28T21:39:48.646Z,84.25
2019-04-28T21:42:20.166Z,84.53
2019-04-28T21:44:54.517Z,84.84
2019-04-28T21:47:35.178Z,84.69
2019-04-28T21:50:06.862Z,84.73
2019-04-28T21:52:36.887Z,84.48
2019-04-28T21:55:07.762Z,84.93
2019-04-28T21:57:37.793Z,84.71
2019-04-28T22:00:09.866Z,84.48
2019-04-28T22:02:39.902Z,84.41
2019-04-28T22:05:09.880Z,84.29
2019-04-28T22:07:39.986Z,84.44
2019-04-28T22:10:10.049Z,84.45
2019-04-28T22:12:40.085Z,84.62
2019-04-28T22:15:10.184Z,85.07
2019-04-28T22:17:40.123Z,84.53
2019-04-28T22:20:10.645Z,84.86
2019-04-28T22:22:40.570Z,85.17
2019-04-28T22:25:12.227Z,85.23
2019-04-28T22:27:42.264Z,85.11
2019-04-28T22:30:12.437Z,85.22
2019-04-28T22:32:42.473Z,85.26
2019-04-28T22:35:12.863Z,85.64
2019-04-28T22:37:42.872Z,85.55
2019-04-28T22:40:13.466Z,85.45
2019-04-28T22:42:43.494Z,85.42
2019-04-28T22:45:15.388Z,85.08
2019-04-28T22:47:45.422Z,85.23
2019-04-28T22:50:36.103Z,85.42
2019-04-28T22:53:06.130Z,85.35
2019-04-28T22:55:40.562Z,85.30
2019-04-28T22:58:15.226Z,85.46
2019-04-28T23:00:53.144Z,85.52
2019-04-28T23:03:39.484Z,85.72
2019-04-28T23:06:10.594Z,85.22
2019-04-28T23:08:40.900Z,85.55
2019-04-28T23:11:11.090Z,85.25
2019-04-28T23:13:41.175Z,85.51
2019-04-28T23:16:11.265Z,85.43
2019-04-28T23:18:41.289Z,85.36
2019-04-28T23:21:13.165Z,85.12
2019-04-28T23:23:43.285Z,85.34
2019-04-28T23:26:13.380Z,85.32
2019-04-28T23:28:43.413Z,85.33
2019-04-28T23:31:13.516Z,85.37
2019-04-28T23:33:43.557Z,85.86
2019-04-28T23:36:13.745Z,85.22
2019-04-28T23:38:43.787Z,85.24
2019-04-28T23:41:15.457Z,85.67
2019-04-28T23:43:45.394Z,85.70
2019-04-28T23:46:15.498Z,85.51
2019-04-28T23:48:45.536Z,85.79
2019-04-28T23:51:17.215Z,86.14
2019-04-28T23:54:03.761Z,86.06
2019-04-28T23:56:33.762Z,86.61
2019-04-28T23:59:03.795Z,86.84
